sensor_id;sensor_type;location;lat;lon;timestamp;pressure;altitude;pressure_sealevel;temperature;humidity
84959;BME280;75256;48.062;11.662;2024-03-02T00:00:21;94290.72;;;5.41;89.21
84959;BME280;75256;48.062;11.662;2024-03-02T00:02:50;94284.75;;;5.46;89.30
84959;BME280;75256;48.062;11.662;2024-03-02T00:05:22;94281.50;;;5.51;88.82
84959;BME280;75256;48.062;11.662;2024-03-02T00:07:57;94283.38;;;5.54;88.71
84959;BME280;75256;48.062;11.662;2024-03-02T00:10:26;94283.03;;;5.52;88.61
84959;BME280;75256;48.062;11.662;2024-03-02T00:12:58;94278.34;;;5.53;89.19
84959;BME280;75256;48.062;11.662;2024-03-02T00:18:12;94277.50;;;5.56;88.74
84959;BME280;75256;48.062;11.662;2024-03-02T00:20:42;94276.50;;;5.62;88.51
84959;BME280;75256;48.062;11.662;2024-03-02T00:23:09;94272.41;;;5.58;87.99
84959;BME280;75256;48.062;11.662;2024-03-02T00:25:48;94259.84;;;5.51;88.51
84959;BME280;75256;48.062;11.662;2024-03-02T00:28:20;94265.91;;;5.55;88.55
84959;BME280;75256;48.062;11.662;2024-03-02T00:33:21;94266.81;;;5.52;88.05
84959;BME280;75256;48.062;11.662;2024-03-02T00:35:47;94262.28;;;5.49;88.21
84959;BME280;75256;48.062;11.662;2024-03-02T00:38:13;94261.50;;;5.49;88.12
84959;BME280;75256;48.062;11.662;2024-03-02T00:40:44;94254.00;;;5.53;88.08
84959;BME280;75256;48.062;11.662;2024-03-02T00:43:42;94260.19;;;5.53;87.57
84959;BME280;75256;48.062;11.662;2024-03-02T00:46:11;94260.22;;;5.41;87.93
84959;BME280;75256;48.062;11.662;2024-03-02T00:48:38;94263.50;;;5.36;88.02
84959;BME280;75256;48.062;11.662;2024-03-02T00:51:09;94253.50;;;5.45;87.97
84959;BME280;75256;48.062;11.662;2024-03-02T00:53:34;94260.13;;;5.44;88.02
84959;BME280;75256;48.062;11.662;2024-03-02T00:56:01;94250.78;;;5.45;87.76
84959;BME280;75256;48.062;11.662;2024-03-02T00:58:26;94247.56;;;5.38;87.89
84959;BME280;75256;48.062;11.662;2024-03-02T01:00:54;94245.63;;;5.38;88.07
84959;BME280;75256;48.062;11.662;2024-03-02T01:03:22;94244.00;;;5.41;88.09
84959;BME280;75256;48.062;11.662;2024-03-02T01:05:50;94236.31;;;5.39;88.13
84959;BME280;75256;48.062;11.662;2024-03-02T01:08:15;94249.44;;;5.28;88.02
84959;BME280;75256;48.062;11.662;2024-03-02T01:10:41;94231.38;;;5.13;88.62
84959;BME280;75256;48.062;11.662;2024-03-02T01:13:09;94241.88;;;5.23;88.34
84959;BME280;75256;48.062;11.662;2024-03-02T01:15:36;94241.97;;;5.32;88.02
84959;BME280;75256;48.062;11.662;2024-03-02T01:18:04;94245.63;;;5.38;87.75
84959;BME280;75256;48.062;11.662;2024-03-02T01:20:30;94240.44;;;5.31;87.87
84959;BME280;75256;48.062;11.662;2024-03-02T01:22:57;94245.22;;;5.27;88.15
84959;BME280;75256;48.062;11.662;2024-03-02T01:25:23;94241.31;;;5.28;88.23
84959;BME280;75256;48.062;11.662;2024-03-02T01:27:50;94240.25;;;5.26;88.16
84959;BME280;75256;48.062;11.662;2024-03-02T01:30:16;94235.28;;;5.24;88.49
84959;BME280;75256;48.062;11.662;2024-03-02T01:32:41;94236.13;;;5.21;88.13
84959;BME280;75256;48.062;11.662;2024-03-02T01:35:09;94241.13;;;5.10;88.65
84959;BME280;75256;48.062;11.662;2024-03-02T01:37:34;94236.16;;;4.96;88.89
84959;BME280;75256;48.062;11.662;2024-03-02T01:40:00;94235.31;;;4.74;89.93
84959;BME280;75256;48.062;11.662;2024-03-02T01:42:25;94246.38;;;4.67;90.74
84959;BME280;75256;48.062;11.662;2024-03-02T01:44:51;94240.63;;;4.65;90.81
84959;BME280;75256;48.062;11.662;2024-03-02T01:47:18;94236.72;;;4.66;90.83
84959;BME280;75256;48.062;11.662;2024-03-02T01:49:44;94233.81;;;4.73;90.46
84959;BME280;75256;48.062;11.662;2024-03-02T01:52:09;94238.47;;;4.72;91.02
84959;BME280;75256;48.062;11.662;2024-03-02T01:54:38;94242.78;;;4.82;90.32
84959;BME280;75256;48.062;11.662;2024-03-02T01:57:06;94236.94;;;4.84;90.25
84959;BME280;75256;48.062;11.662;2024-03-02T01:59:34;94242.66;;;4.86;90.03
84959;BME280;75256;48.062;11.662;2024-03-02T02:01:59;94238.13;;;4.83;90.20
84959;BME280;75256;48.062;11.662;2024-03-02T02:04:25;94226.00;;;4.87;89.84
84959;BME280;75256;48.062;11.662;2024-03-02T02:06:55;94226.56;;;4.95;89.94
84959;BME280;75256;48.062;11.662;2024-03-02T02:09:20;94230.09;;;5.04;89.16
84959;BME280;75256;48.062;11.662;2024-03-02T02:11:46;94226.09;;;5.09;89.64
84959;BME280;75256;48.062;11.662;2024-03-02T02:14:13;94227.19;;;5.12;89.50
84959;BME280;75256;48.062;11.662;2024-03-02T02:16:39;94226.41;;;5.11;89.21
84959;BME280;75256;48.062;11.662;2024-03-02T02:19:04;94222.97;;;5.11;89.40
84959;BME280;75256;48.062;11.662;2024-03-02T02:21:30;94217.78;;;5.03;89.27
84959;BME280;75256;48.062;11.662;2024-03-02T02:23:56;94216.47;;;5.08;89.06
84959;BME280;75256;48.062;11.662;2024-03-02T02:26:21;94201.44;;;5.07;88.88
84959;BME280;75256;48.062;11.662;2024-03-02T02:28:52;94213.44;;;5.06;89.32
84959;BME280;75256;48.062;11.662;2024-03-02T02:31:17;94209.34;;;5.01;88.92
84959;BME280;75256;48.062;11.662;2024-03-02T02:33:45;94208.16;;;5.02;89.17
84959;BME280;75256;48.062;11.662;2024-03-02T02:36:10;94207.41;;;5.02;89.30
84959;BME280;75256;48.062;11.662;2024-03-02T02:38:39;94203.50;;;5.03;89.26
84959;BME280;75256;48.062;11.662;2024-03-02T02:41:08;94205.66;;;5.08;88.87
84959;BME280;75256;48.062;11.662;2024-03-02T02:43:35;94197.31;;;5.15;88.79
84959;BME280;75256;48.062;11.662;2024-03-02T02:46:05;94198.53;;;5.14;88.96
84959;BME280;75256;48.062;11.662;2024-03-02T02:48:35;94196.88;;;5.17;88.88
84959;BME280;75256;48.062;11.662;2024-03-02T02:51:00;94196.66;;;5.11;89.17
84959;BME280;75256;48.062;11.662;2024-03-02T02:53:25;94203.28;;;5.10;89.03
84959;BME280;75256;48.062;11.662;2024-03-02T02:55:51;94192.56;;;5.06;89.45
84959;BME280;75256;48.062;11.662;2024-03-02T02:58:17;94192.56;;;5.06;89.18
84959;BME280;75256;48.062;11.662;2024-03-02T03:00:44;94191.38;;;5.07;89.25
84959;BME280;75256;48.062;11.662;2024-03-02T03:03:10;94193.84;;;5.15;89.23
84959;BME280;75256;48.062;11.662;2024-03-02T03:05:40;94204.88;;;5.20;89.34
84959;BME280;75256;48.062;11.662;2024-03-02T03:08:05;94200.34;;;5.17;89.13
84959;BME280;75256;48.062;11.662;2024-03-02T03:10:33;94198.81;;;5.16;89.13
84959;BME280;75256;48.062;11.662;2024-03-02T03:12:59;94203.78;;;5.18;89.49
84959;BME280;75256;48.062;11.662;2024-03-02T03:15:24;94204.88;;;5.20;89.42
84959;BME280;75256;48.062;11.662;2024-03-02T03:17:49;94203.38;;;5.06;89.23
84959;BME280;75256;48.062;11.662;2024-03-02T03:20:18;94198.44;;;4.92;90.24
84959;BME280;75256;48.062;11.662;2024-03-02T03:22:43;94201.25;;;4.89;90.61
84959;BME280;75256;48.062;11.662;2024-03-02T03:25:09;94204.38;;;4.87;90.57
84959;BME280;75256;48.062;11.662;2024-03-02T03:27:35;94210.34;;;4.82;90.76
84959;BME280;75256;48.062;11.662;2024-03-02T03:30:01;94211.31;;;4.76;91.09
84959;BME280;75256;48.062;11.662;2024-03-02T03:32:26;94209.06;;;4.74;91.46
84959;BME280;75256;48.062;11.662;2024-03-02T03:34:51;94218.56;;;4.79;91.72
84959;BME280;75256;48.062;11.662;2024-03-02T03:37:17;94219.88;;;4.74;92.04
84959;BME280;75256;48.062;11.662;2024-03-02T03:39:42;94224.09;;;4.63;91.92
84959;BME280;75256;48.062;11.662;2024-03-02T03:42:10;94223.22;;;4.66;92.18
84959;BME280;75256;48.062;11.662;2024-03-02T03:44:35;94228.28;;;4.64;92.35
84959;BME280;75256;48.062;11.662;2024-03-02T03:47:02;94232.72;;;4.83;91.88
84959;BME280;75256;48.062;11.662;2024-03-02T03:49:27;94224.06;;;4.88;91.52
84959;BME280;75256;48.062;11.662;2024-03-02T03:51:55;94228.28;;;5.01;91.04
84959;BME280;75256;48.062;11.662;2024-03-02T03:54:23;94231.09;;;4.98;91.09
84959;BME280;75256;48.062;11.662;2024-03-02T03:56:48;94233.25;;;5.03;90.73
84959;BME280;75256;48.062;11.662;2024-03-02T03:59:14;94226.63;;;5.04;90.52
84959;BME280;75256;48.062;11.662;2024-03-02T04:01:42;94230.44;;;5.06;90.43
84959;BME280;75256;48.062;11.662;2024-03-02T04:04:07;94224.34;;;5.15;90.02
84959;BME280;75256;48.062;11.662;2024-03-02T04:06:32;94230.97;;;5.14;89.69
84959;BME280;75256;48.062;11.662;2024-03-02T04:09:00;94230.72;;;5.21;89.82
84959;BME280;75256;48.062;11.662;2024-03-02T04:11:26;94228.34;;;5.23;89.59
84959;BME280;75256;48.062;11.662;2024-03-02T04:13:53;94233.13;;;5.19;89.54
84959;BME280;75256;48.062;11.662;2024-03-02T04:16:19;94240.78;;;5.21;89.63
84959;BME280;75256;48.062;11.662;2024-03-02T04:18:44;94232.34;;;5.19;89.74
84959;BME280;75256;48.062;11.662;2024-03-02T04:21:12;94229.31;;;5.17;89.65
84959;BME280;75256;48.062;11.662;2024-03-02T04:23:40;94233.69;;;5.14;89.98
84959;BME280;75256;48.062;11.662;2024-03-02T04:26:07;94227.56;;;5.23;89.95
84959;BME280;75256;48.062;11.662;2024-03-02T04:28:37;94230.50;;;5.28;89.84
84959;BME280;75256;48.062;11.662;2024-03-02T04:31:03;94227.81;;;5.16;89.90
84959;BME280;75256;48.062;11.662;2024-03-02T04:33:28;94236.06;;;5.12;90.70
84959;BME280;75256;48.062;11.662;2024-03-02T04:35:54;94227.81;;;5.16;90.67
84959;BME280;75256;48.062;11.662;2024-03-02T04:38:19;94228.28;;;5.14;90.76
84959;BME280;75256;48.062;11.662;2024-03-02T04:40:49;94228.28;;;5.01;90.86
84959;BME280;75256;48.062;11.662;2024-03-02T04:43:14;94234.66;;;4.82;92.15
84959;BME280;75256;48.062;11.662;2024-03-02T04:45:42;94233.69;;;4.64;92.93
84959;BME280;75256;48.062;11.662;2024-03-02T04:48:10;94242.69;;;4.61;93.37
84959;BME280;75256;48.062;11.662;2024-03-02T04:50:35;94247.09;;;4.67;93.53
84959;BME280;75256;48.062;11.662;2024-03-02T04:53:01;94255.22;;;4.80;93.09
84959;BME280;75256;48.062;11.662;2024-03-02T04:55:26;94266.03;;;4.80;92.80
84959;BME280;75256;48.062;11.662;2024-03-02T04:57:56;94263.09;;;4.99;91.33
84959;BME280;75256;48.062;11.662;2024-03-02T05:00:24;94263.31;;;4.92;91.89
84959;BME280;75256;48.062;11.662;2024-03-02T05:02:52;94274.13;;;5.05;90.97
84959;BME280;75256;48.062;11.662;2024-03-02T05:05:20;94271.75;;;5.07;91.01
84959;BME280;75256;48.062;11.662;2024-03-02T05:07:45;94271.97;;;4.87;91.69
84959;BME280;75256;48.062;11.662;2024-03-02T05:10:12;94283.22;;;4.98;91.38
84959;BME280;75256;48.062;11.662;2024-03-02T05:12:37;94271.31;;;5.08;90.83
84959;BME280;75256;48.062;11.662;2024-03-02T05:15:15;94272.72;;;5.13;90.74
84959;BME280;75256;48.062;11.662;2024-03-02T05:17:41;94278.56;;;5.12;90.84
84959;BME280;75256;48.062;11.662;2024-03-02T05:20:12;94279.22;;;5.03;91.29
84959;BME280;75256;48.062;11.662;2024-03-02T05:22:38;94275.00;;;5.02;91.24
84959;BME280;75256;48.062;11.662;2024-03-02T05:25:05;94275.56;;;4.97;91.68
84959;BME280;75256;48.062;11.662;2024-03-02T05:27:33;94278.03;;;4.91;92.07
84959;BME280;75256;48.062;11.662;2024-03-02T05:30:02;94277.16;;;4.94;91.98
84959;BME280;75256;48.062;11.662;2024-03-02T05:32:33;94268.63;;;4.96;92.17
84959;BME280;75256;48.062;11.662;2024-03-02T05:34:58;94275.34;;;4.91;92.22
84959;BME280;75256;48.062;11.662;2024-03-02T05:37:28;94274.91;;;4.80;92.69
84959;BME280;75256;48.062;11.662;2024-03-02T05:39:53;94280.84;;;4.63;92.84
84959;BME280;75256;48.062;11.662;2024-03-02T05:42:19;94283.09;;;4.64;93.16
84959;BME280;75256;48.062;11.662;2024-03-02T05:44:44;94285.19;;;4.85;92.58
84959;BME280;75256;48.062;11.662;2024-03-02T05:47:09;94283.34;;;4.95;92.27
84959;BME280;75256;48.062;11.662;2024-03-02T05:49:39;94287.00;;;5.01;92.32
84959;BME280;75256;48.062;11.662;2024-03-02T05:52:06;94290.13;;;4.99;92.12
84959;BME280;75256;48.062;11.662;2024-03-02T05:54:34;94283.75;;;5.06;92.25
84959;BME280;75256;48.062;11.662;2024-03-02T05:56:59;94290.03;;;5.16;91.68
84959;BME280;75256;48.062;11.662;2024-03-02T05:59:41;94282.03;;;5.12;91.46
84959;BME280;75256;48.062;11.662;2024-03-02T06:02:07;94278.13;;;5.13;91.80
84959;BME280;75256;48.062;11.662;2024-03-02T06:04:32;94274.47;;;5.07;92.05
84959;BME280;75256;48.062;11.662;2024-03-02T06:06:57;94279.09;;;5.06;91.83
84959;BME280;75256;48.062;11.662;2024-03-02T06:09:23;94273.69;;;5.06;91.87
84959;BME280;75256;48.062;11.662;2024-03-02T06:11:49;94280.16;;;5.09;92.00
84959;BME280;75256;48.062;11.662;2024-03-02T06:14:15;94275.63;;;5.19;91.97
84959;BME280;75256;48.062;11.662;2024-03-02T06:16:40;94278.41;;;5.28;91.64
84959;BME280;75256;48.062;11.662;2024-03-02T06:19:08;94278.00;;;5.17;91.88
84959;BME280;75256;48.062;11.662;2024-03-02T06:21:33;94279.50;;;5.18;91.64
84959;BME280;75256;48.062;11.662;2024-03-02T06:23:59;94284.94;;;5.05;92.28
84959;BME280;75256;48.062;11.662;2024-03-02T06:26:26;94290.16;;;4.87;92.80
84959;BME280;75256;48.062;11.662;2024-03-02T06:28:55;94294.16;;;4.95;92.81
84959;BME280;75256;48.062;11.662;2024-03-02T06:31:20;94292.75;;;5.16;92.30
84959;BME280;75256;48.062;11.662;2024-03-02T06:33:46;94296.72;;;5.11;92.58
84959;BME280;75256;48.062;11.662;2024-03-02T06:36:15;94296.41;;;5.22;91.88
84959;BME280;75256;48.062;11.662;2024-03-02T06:38:44;94293.38;;;5.20;92.17
84959;BME280;75256;48.062;11.662;2024-03-02T06:41:11;94302.34;;;5.29;91.52
84959;BME280;75256;48.062;11.662;2024-03-02T06:43:39;94294.25;;;5.29;91.72
84959;BME280;75256;48.062;11.662;2024-03-02T06:46:04;94294.63;;;5.40;90.59
84959;BME280;75256;48.062;11.662;2024-03-02T06:48:31;94279.34;;;5.46;89.74
84959;BME280;75256;48.062;11.662;2024-03-02T06:50:56;94280.13;;;5.47;90.06
84959;BME280;75256;48.062;11.662;2024-03-02T06:53:23;94281.75;;;5.44;90.04
84959;BME280;75256;48.062;11.662;2024-03-02T06:55:52;94289.78;;;5.35;90.57
84959;BME280;75256;48.062;11.662;2024-03-02T06:58:20;94288.13;;;5.38;90.63
84959;BME280;75256;48.062;11.662;2024-03-02T07:00:48;94280.47;;;5.36;90.93
84959;BME280;75256;48.062;11.662;2024-03-02T07:03:13;94287.06;;;5.35;90.33
84959;BME280;75256;48.062;11.662;2024-03-02T07:05:39;94283.72;;;5.31;90.48
84959;BME280;75256;48.062;11.662;2024-03-02T07:08:04;94283.41;;;5.29;90.36
84959;BME280;75256;48.062;11.662;2024-03-02T07:10:31;94292.38;;;5.26;90.55
84959;BME280;75256;48.062;11.662;2024-03-02T07:12:56;94288.50;;;5.27;90.39
84959;BME280;75256;48.062;11.662;2024-03-02T07:15:24;94282.75;;;5.25;90.81
84959;BME280;75256;48.062;11.662;2024-03-02T07:17:52;94290.88;;;5.25;90.83
84959;BME280;75256;48.062;11.662;2024-03-02T07:20:17;94290.22;;;5.21;91.23
84959;BME280;75256;48.062;11.662;2024-03-02T07:22:45;94286.97;;;5.26;91.09
84959;BME280;75256;48.062;11.662;2024-03-02T07:25:11;94273.69;;;5.19;91.74
84959;BME280;75256;48.062;11.662;2024-03-02T07:27:36;94291.09;;;5.18;91.65
84959;BME280;75256;48.062;11.662;2024-03-02T07:30:03;94289.69;;;5.14;91.80
84959;BME280;75256;48.062;11.662;2024-03-02T07:32:31;94293.47;;;5.16;91.96
84959;BME280;75256;48.062;11.662;2024-03-02T07:35:01;94288.94;;;5.13;91.85
84959;BME280;75256;48.062;11.662;2024-03-02T07:37:28;94283.75;;;5.19;92.03
84959;BME280;75256;48.062;11.662;2024-03-02T07:39:54;94293.38;;;5.20;91.67
84959;BME280;75256;48.062;11.662;2024-03-02T07:42:19;94293.47;;;5.16;91.59
84959;BME280;75256;48.062;11.662;2024-03-02T07:44:45;94292.31;;;5.17;91.85
84959;BME280;75256;48.062;11.662;2024-03-02T07:47:10;94298.25;;;5.12;91.94
84959;BME280;75256;48.062;11.662;2024-03-02T07:49:38;94304.50;;;5.09;91.78
84959;BME280;75256;48.062;11.662;2024-03-02T07:52:09;94301.81;;;5.09;91.97
84959;BME280;75256;48.062;11.662;2024-03-02T07:54:34;94304.63;;;4.93;92.80
84959;BME280;75256;48.062;11.662;2024-03-02T07:57:02;94305.28;;;4.84;93.03
84959;BME280;75256;48.062;11.662;2024-03-02T07:59:28;94317.81;;;4.91;93.17
84959;BME280;75256;48.062;11.662;2024-03-02T08:01:53;94315.34;;;4.96;92.55
84959;BME280;75256;48.062;11.662;2024-03-02T08:04:20;94320.31;;;4.85;92.71
84959;BME280;75256;48.062;11.662;2024-03-02T08:06:45;94317.72;;;4.82;93.39
84959;BME280;75256;48.062;11.662;2024-03-02T08:09:15;94317.28;;;4.96;92.65
84959;BME280;75256;48.062;11.662;2024-03-02T08:11:41;94312.44;;;5.03;92.60
84959;BME280;75256;48.062;11.662;2024-03-02T08:14:09;94311.56;;;5.06;92.34
84959;BME280;75256;48.062;11.662;2024-03-02T08:16:34;94313.81;;;5.08;91.98
84959;BME280;75256;48.062;11.662;2024-03-02T08:18:59;94314.56;;;5.21;91.80
84959;BME280;75256;48.062;11.662;2024-03-02T08:21:25;94320.75;;;5.34;91.53
84959;BME280;75256;48.062;11.662;2024-03-02T08:23:53;94322.13;;;5.39;90.37
84959;BME280;75256;48.062;11.662;2024-03-02T08:26:18;94319.44;;;5.39;90.32
84959;BME280;75256;48.062;11.662;2024-03-02T08:28:46;94325.06;;;5.44;90.28
84959;BME280;75256;48.062;11.662;2024-03-02T08:31:14;94321.88;;;5.58;90.28
84959;BME280;75256;48.062;11.662;2024-03-02T08:33:40;94323.47;;;5.68;90.23
84959;BME280;75256;48.062;11.662;2024-03-02T08:36:08;94331.78;;;5.86;89.25
84959;BME280;75256;48.062;11.662;2024-03-02T08:38:36;94323.44;;;5.93;89.15
84959;BME280;75256;48.062;11.662;2024-03-02T08:41:02;94332.84;;;6.01;89.33
84959;BME280;75256;48.062;11.662;2024-03-02T08:43:28;94323.88;;;6.13;88.35
84959;BME280;75256;48.062;11.662;2024-03-02T08:45:54;94326.13;;;6.27;88.18
84959;BME280;75256;48.062;11.662;2024-03-02T08:48:19;94330.72;;;6.40;87.28
84959;BME280;75256;48.062;11.662;2024-03-02T08:50:49;94320.56;;;6.53;86.87
84959;BME280;75256;48.062;11.662;2024-03-02T08:53:17;94331.03;;;6.63;86.01
84959;BME280;75256;48.062;11.662;2024-03-02T08:55:48;94323.44;;;6.80;86.04
84959;BME280;75256;48.062;11.662;2024-03-02T08:58:16;94323.78;;;6.91;84.84
84959;BME280;75256;48.062;11.662;2024-03-02T09:00:44;94327.59;;;7.02;85.16
84959;BME280;75256;48.062;11.662;2024-03-02T09:03:14;94321.63;;;7.16;84.83
84959;BME280;75256;48.062;11.662;2024-03-02T09:05:40;94321.56;;;7.29;84.14
84959;BME280;75256;48.062;11.662;2024-03-02T09:08:05;94320.84;;;7.46;83.17
84959;BME280;75256;48.062;11.662;2024-03-02T09:10:31;94322.53;;;7.62;83.02
84959;BME280;75256;48.062;11.662;2024-03-02T09:12:56;94321.34;;;7.72;81.98
84959;BME280;75256;48.062;11.662;2024-03-02T09:15:22;94325.13;;;7.84;82.08
84959;BME280;75256;48.062;11.662;2024-03-02T09:17:47;94320.78;;;7.95;81.13
84959;BME280;75256;48.062;11.662;2024-03-02T09:20:15;94326.22;;;8.04;79.99
84959;BME280;75256;48.062;11.662;2024-03-02T09:22:43;94329.53;;;8.08;81.04
84959;BME280;75256;48.062;11.662;2024-03-02T09:25:09;94333.16;;;8.05;79.90
84959;BME280;75256;48.062;11.662;2024-03-02T09:27:38;94332.56;;;8.01;76.73
84959;BME280;75256;48.062;11.662;2024-03-02T09:30:15;94323.19;;;7.93;78.46
84959;BME280;75256;48.062;11.662;2024-03-02T09:32:45;94317.28;;;7.95;80.04
84959;BME280;75256;48.062;11.662;2024-03-02T09:35:11;94318.38;;;7.97;79.61
84959;BME280;75256;48.062;11.662;2024-03-02T09:37:37;94320.03;;;8.04;79.34
84959;BME280;75256;48.062;11.662;2024-03-02T09:40:05;94314.59;;;8.13;78.99
84959;BME280;75256;48.062;11.662;2024-03-02T09:42:33;94314.16;;;8.32;79.49
84959;BME280;75256;48.062;11.662;2024-03-02T09:44:59;94305.94;;;8.77;77.94
84959;BME280;75256;48.062;11.662;2024-03-02T09:47:25;94307.63;;;9.17;76.43
84959;BME280;75256;48.062;11.662;2024-03-02T09:49:55;94309.19;;;9.09;76.32
84959;BME280;75256;48.062;11.662;2024-03-02T09:52:22;94305.41;;;8.97;76.98
84959;BME280;75256;48.062;11.662;2024-03-02T09:54:50;94310.00;;;8.91;77.23
84959;BME280;75256;48.062;11.662;2024-03-02T09:57:16;94304.06;;;9.02;77.58
84959;BME280;75256;48.062;11.662;2024-03-02T09:59:41;94300.41;;;9.14;77.16
84959;BME280;75256;48.062;11.662;2024-03-02T10:02:07;94307.94;;;9.19;76.42
84959;BME280;75256;48.062;11.662;2024-03-02T10:04:33;94306.09;;;9.25;76.84
84959;BME280;75256;48.062;11.662;2024-03-02T10:09:37;94303.34;;;9.34;75.52
84959;BME280;75256;48.062;11.662;2024-03-02T10:12:05;94301.81;;;9.33;75.36
84959;BME280;75256;48.062;11.662;2024-03-02T10:14:31;94286.63;;;9.41;75.27
84959;BME280;75256;48.062;11.662;2024-03-02T10:17:09;94296.31;;;9.51;74.68
84959;BME280;75256;48.062;11.662;2024-03-02T10:19:35;94305.03;;;9.55;74.61
84959;BME280;75256;48.062;11.662;2024-03-02T10:22:07;94286.91;;;9.52;73.95
84959;BME280;75256;48.062;11.662;2024-03-02T10:29:38;94294.72;;;10.06;71.49
84959;BME280;75256;48.062;11.662;2024-03-02T10:32:10;94278.50;;;10.12;71.62
84959;BME280;75256;48.062;11.662;2024-03-02T10:34:37;94285.78;;;10.29;71.67
84959;BME280;75256;48.062;11.662;2024-03-02T10:37:06;94279.38;;;10.32;72.79
84959;BME280;75256;48.062;11.662;2024-03-02T10:39:34;94277.19;;;10.22;71.10
84959;BME280;75256;48.062;11.662;2024-03-02T10:42:03;94278.38;;;10.30;72.69
84959;BME280;75256;48.062;11.662;2024-03-02T10:44:30;94273.88;;;10.41;70.17
84959;BME280;75256;48.062;11.662;2024-03-02T10:47:05;94266.16;;;10.54;69.85
84959;BME280;75256;48.062;11.662;2024-03-02T10:49:38;94263.44;;;10.54;70.18
84959;BME280;75256;48.062;11.662;2024-03-02T10:52:05;94262.19;;;10.55;69.67
84959;BME280;75256;48.062;11.662;2024-03-02T10:54:33;94253.44;;;10.66;68.77
84959;BME280;75256;48.062;11.662;2024-03-02T10:57:03;94245.72;;;10.79;69.17
84959;BME280;75256;48.062;11.662;2024-03-02T10:59:34;94241.84;;;10.85;67.81
84959;BME280;75256;48.062;11.662;2024-03-02T11:02:02;94240.53;;;10.95;68.58
84959;BME280;75256;48.062;11.662;2024-03-02T11:04:32;94240.72;;;11.06;66.74
84959;BME280;75256;48.062;11.662;2024-03-02T11:07:06;94235.88;;;11.16;67.68
84959;BME280;75256;48.062;11.662;2024-03-02T11:09:34;94229.69;;;11.15;66.84
84959;BME280;75256;48.062;11.662;2024-03-02T11:12:33;94233.34;;;11.27;66.21
84959;BME280;75256;48.062;11.662;2024-03-02T11:15:04;94226.63;;;11.28;65.09
84959;BME280;75256;48.062;11.662;2024-03-02T11:17:36;94209.75;;;11.29;66.03
84959;BME280;75256;48.062;11.662;2024-03-02T11:20:04;94210.84;;;11.38;65.01
84959;BME280;75256;48.062;11.662;2024-03-02T11:22:35;94203.78;;;11.46;66.31
84959;BME280;75256;48.062;11.662;2024-03-02T11:25:03;94205.69;;;11.60;64.14
84959;BME280;75256;48.062;11.662;2024-03-02T11:32:57;94188.97;;;11.52;64.63
84959;BME280;75256;48.062;11.662;2024-03-02T11:35:24;94193.97;;;11.74;64.72
84959;BME280;75256;48.062;11.662;2024-03-02T11:37:55;94185.63;;;11.83;64.86
84959;BME280;75256;48.062;11.662;2024-03-02T11:40:28;94184.03;;;11.96;63.31
84959;BME280;75256;48.062;11.662;2024-03-02T11:42:53;94182.13;;;12.02;63.86
84959;BME280;75256;48.062;11.662;2024-03-02T11:45:25;94186.09;;;12.27;62.75
84959;BME280;75256;48.062;11.662;2024-03-02T11:47:53;94172.97;;;12.31;63.03
84959;BME280;75256;48.062;11.662;2024-03-02T11:50:36;94159.59;;;12.38;62.62
84959;BME280;75256;48.062;11.662;2024-03-02T11:53:07;94157.81;;;12.61;62.73
84959;BME280;75256;48.062;11.662;2024-03-02T11:55:39;94156.19;;;12.80;60.08
84959;BME280;75256;48.062;11.662;2024-03-02T11:58:15;94151.28;;;12.53;61.01
84959;BME280;75256;48.062;11.662;2024-03-02T12:00:46;94154.75;;;12.85;62.30
84959;BME280;75256;48.062;11.662;2024-03-02T12:03:13;94148.13;;;12.97;61.52
84959;BME280;75256;48.062;11.662;2024-03-02T12:05:40;94147.13;;;13.00;61.65
84959;BME280;75256;48.062;11.662;2024-03-02T12:08:06;94144.47;;;12.74;60.79
84959;BME280;75256;48.062;11.662;2024-03-02T12:10:33;94146.22;;;12.77;60.92
84959;BME280;75256;48.062;11.662;2024-03-02T12:13:06;94147.38;;;12.96;61.44
84959;BME280;75256;48.062;11.662;2024-03-02T12:15:36;94137.59;;;13.26;59.70
84959;BME280;75256;48.062;11.662;2024-03-02T12:18:05;94138.91;;;13.36;58.55
84959;BME280;75256;48.062;11.662;2024-03-02T12:20:33;94136.66;;;13.35;58.88
84959;BME280;75256;48.062;11.662;2024-03-02T12:22:59;94132.94;;;13.38;57.99
84959;BME280;75256;48.062;11.662;2024-03-02T12:25:26;94129.69;;;13.34;59.13
84959;BME280;75256;48.062;11.662;2024-03-02T12:27:57;94128.69;;;13.37;58.42
84959;BME280;75256;48.062;11.662;2024-03-02T12:30:26;94124.72;;;13.38;59.72
84959;BME280;75256;48.062;11.662;2024-03-02T12:32:52;94124.44;;;13.36;59.33
84959;BME280;75256;48.062;11.662;2024-03-02T12:35:18;94123.78;;;13.57;59.04
84959;BME280;75256;48.062;11.662;2024-03-02T12:37:52;94121.56;;;13.61;58.83
84959;BME280;75256;48.062;11.662;2024-03-02T12:40:19;94119.03;;;13.47;58.41
84959;BME280;75256;48.062;11.662;2024-03-02T12:42:45;94115.09;;;13.59;58.52
84959;BME280;75256;48.062;11.662;2024-03-02T12:45:12;94106.56;;;13.51;58.69
84959;BME280;75256;48.062;11.662;2024-03-02T12:47:39;94104.38;;;13.66;58.49
84959;BME280;75256;48.062;11.662;2024-03-02T12:50:10;94103.69;;;13.77;58.15
84959;BME280;75256;48.062;11.662;2024-03-02T12:52:36;94099.44;;;13.82;57.41
84959;BME280;75256;48.062;11.662;2024-03-02T12:55:03;94089.94;;;13.71;57.94
84959;BME280;75256;48.062;11.662;2024-03-02T12:57:33;94087.47;;;13.85;57.22
84959;BME280;75256;48.062;11.662;2024-03-02T12:59:59;94085.22;;;13.83;56.85
84959;BME280;75256;48.062;11.662;2024-03-02T13:02:29;94075.28;;;13.86;57.74
84959;BME280;75256;48.062;11.662;2024-03-02T13:04:57;94078.28;;;13.99;57.18
84959;BME280;75256;48.062;11.662;2024-03-02T13:07:24;94072.03;;;13.98;57.66
84959;BME280;75256;48.062;11.662;2024-03-02T13:09:50;94071.53;;;14.00;56.80
84959;BME280;75256;48.062;11.662;2024-03-02T13:12:17;94051.59;;;14.05;57.34
84959;BME280;75256;48.062;11.662;2024-03-02T13:14:42;94060.84;;;14.18;56.34
84959;BME280;75256;48.062;11.662;2024-03-02T13:17:09;94062.09;;;14.12;56.50